Time;durP1;ratioP1;P1;durP2;ratioP2;P2;SDS_P1;SDS_P2;PMS_P1;PMS_P2;Temp;Humidity;BMP_temperature;BMP_pressure;BME280_temperature;BME280_humidity;BME280_pressure;Samples;Min_cycle;Max_cycle;Signal;HPM_P1;HPM_P2
2023/05/03 00:00:02;;;;;;;2.20;0.90;;;9.30;60.40;;;;;;5037472;28;20044;-70
2023/05/03 00:02:30;;;;;;;2.00;1.10;;;9.30;60.30;;;;;;5037688;28;20052;-70
2023/05/03 00:04:59;;;;;;;4.13;1.38;;;9.30;60.60;;;;;;5020597;28;20051;-70
2023/05/03 00:07:25;;;;;;;2.15;1.00;;;9.30;60.00;;;;;;5037281;28;20124;-70
2023/05/03 00:09:51;;;;;;;3.05;1.65;;;9.30;60.00;;;;;;5020688;28;20120;-70
2023/05/03 00:12:17;;;;;;;2.90;1.23;;;9.30;60.00;;;;;;5037201;28;20036;-70
2023/05/03 00:14:44;;;;;;;3.10;1.02;;;9.30;60.00;;;;;;5055054;28;20106;-70
2023/05/03 00:17:10;;;;;;;2.92;1.25;;;9.30;59.90;;;;;;5037130;28;20051;-70
2023/05/03 00:19:36;;;;;;;2.90;1.05;;;9.30;59.80;;;;;;5037309;28;20404;-70
2023/05/03 00:22:02;;;;;;;3.70;1.75;;;9.30;59.80;;;;;;5037323;28;20063;-70
2023/05/03 00:24:28;;;;;;;3.75;1.65;;;9.30;59.80;;;;;;5036682;28;20565;-70
2023/05/03 00:26:54;;;;;;;2.03;1.08;;;9.20;59.80;;;;;;5037272;28;20037;-70
2023/05/03 00:29:21;;;;;;;4.65;1.13;;;9.20;59.80;;;;;;5020267;28;20473;-70
2023/05/03 00:31:47;;;;;;;2.67;1.23;;;9.20;59.70;;;;;;5036813;28;20562;-70
2023/05/03 00:34:13;;;;;;;2.22;1.15;;;9.20;59.80;;;;;;5020214;28;20045;-70
2023/05/03 00:36:39;;;;;;;3.63;1.20;;;9.20;59.90;;;;;;5020399;28;20044;-70
2023/05/03 00:39:05;;;;;;;2.67;1.30;;;9.20;59.90;;;;;;5036882;28;20040;-70
2023/05/03 00:41:30;;;;;;;2.08;1.08;;;9.20;59.90;;;;;;5020252;28;20514;-70
2023/05/03 00:43:56;;;;;;;2.08;1.00;;;9.20;60.00;;;;;;5036580;28;20040;-70
2023/05/03 00:46:22;;;;;;;2.00;1.30;;;9.20;60.00;;;;;;5020025;28;20041;-70
2023/05/03 00:48:48;;;;;;;3.42;1.10;;;9.10;60.00;;;;;;5019979;28;20122;-70
2023/05/03 00:51:14;;;;;;;2.55;1.10;;;9.10;60.00;;;;;;5003901;28;20044;-70
2023/05/03 00:53:43;;;;;;;3.72;1.30;;;9.10;60.10;;;;;;5003692;28;20029;-70
2023/05/03 00:56:13;;;;;;;2.97;1.40;;;9.10;60.30;;;;;;5036558;28;20045;-70
2023/05/03 00:58:39;;;;;;;3.10;1.30;;;9.10;60.40;;;;;;5020296;28;20127;-70
2023/05/03 01:01:08;;;;;;;2.97;1.60;;;9.00;60.30;;;;;;5036352;28;20048;-71
2023/05/03 01:03:36;;;;;;;2.08;1.10;;;9.00;60.50;;;;;;5019041;28;20120;-71
2023/05/03 01:06:24;;;;;;;2.97;1.33;;;9.00;60.60;;;;;;5036183;28;20052;-70
2023/05/03 01:09:10;;;;;;;4.28;1.30;;;9.00;60.70;;;;;;5036116;28;20041;-70
2023/05/03 01:11:50;;;;;;;2.08;1.50;;;9.00;60.80;;;;;;5019736;28;20120;-71
2023/05/03 01:14:41;;;;;;;3.22;1.20;;;9.00;60.80;;;;;;5036288;28;20466;-71
2023/05/03 01:17:11;;;;;;;4.85;1.20;;;9.00;60.90;;;;;;5036193;28;20123;-70
2023/05/03 01:19:50;;;;;;;1.40;1.20;;;9.00;61.20;;;;;;5036238;28;20044;-70
2023/05/03 01:22:28;;;;;;;2.33;1.27;;;8.90;61.30;;;;;;5035913;28;20045;-70
2023/05/03 01:25:11;;;;;;;3.05;1.10;;;9.00;61.60;;;;;;5035704;28;20053;-70
2023/05/03 01:27:38;;;;;;;4.82;1.67;;;9.00;61.70;;;;;;5035751;28;20041;-71
2023/05/03 01:30:06;;;;;;;2.40;1.48;;;9.00;61.80;;;;;;5035835;28;20040;-70
2023/05/03 01:33:09;;;;;;;3.92;1.52;;;9.00;61.80;;;;;;5035681;28;20051;-70
2023/05/03 01:35:52;;;;;;;4.03;1.42;;;9.00;61.80;;;;;;5035606;28;20055;-71
2023/05/03 01:38:21;;;;;;;3.83;1.30;;;9.00;61.90;;;;;;5035502;28;20056;-71
2023/05/03 01:40:56;;;;;;;2.70;1.13;;;9.00;62.00;;;;;;5035399;28;20123;-70
2023/05/03 01:43:23;;;;;;;2.03;1.17;;;9.00;62.10;;;;;;5019287;28;20049;-71
2023/05/03 01:45:49;;;;;;;3.45;1.33;;;9.00;62.20;;;;;;5035390;28;20045;-70
2023/05/03 01:48:17;;;;;;;3.17;1.10;;;9.00;62.20;;;;;;5019309;28;20404;-71
2023/05/03 01:50:43;;;;;;;3.83;1.50;;;9.00;62.30;;;;;;5035676;28;20033;-71
2023/05/03 01:53:08;;;;;;;1.85;1.25;;;9.00;62.20;;;;;;5035306;28;20055;-70
2023/05/03 01:55:34;;;;;;;3.17;1.65;;;9.00;62.20;;;;;;5035498;28;20045;-70
2023/05/03 01:58:00;;;;;;;3.50;1.50;;;9.10;62.20;;;;;;5035300;28;20043;-70
2023/05/03 02:00:26;;;;;;;2.30;1.17;;;9.10;62.20;;;;;;5035471;28;20032;-70
2023/05/03 02:02:51;;;;;;;2.80;1.50;;;9.00;62.10;;;;;;5018788;28;20047;-70
2023/05/03 02:05:17;;;;;;;3.63;1.50;;;9.10;62.10;;;;;;5018617;28;20049;-70
2023/05/03 02:07:43;;;;;;;2.80;1.00;;;9.00;62.00;;;;;;5035113;28;20404;-71
2023/05/03 02:10:13;;;;;;;2.42;1.77;;;9.10;62.00;;;;;;5018758;28;20113;-70
2023/05/03 02:12:42;;;;;;;2.28;1.30;;;9.10;62.00;;;;;;5035129;28;20040;-71
2023/05/03 02:15:09;;;;;;;2.25;1.27;;;9.00;61.90;;;;;;5034431;28;20369;-70
2023/05/03 02:17:36;;;;;;;3.20;1.35;;;9.00;61.80;;;;;;5035106;28;20044;-70
2023/05/03 02:20:07;;;;;;;3.33;1.65;;;9.00;61.80;;;;;;5018611;28;20045;-70
2023/05/03 02:22:32;;;;;;;3.15;1.08;;;9.00;61.80;;;;;;5034952;28;20040;-71
2023/05/03 02:24:58;;;;;;;2.75;1.40;;;9.00;61.80;;;;;;5052854;28;20051;-71
2023/05/03 02:27:24;;;;;;;2.67;1.55;;;9.00;61.80;;;;;;5018478;28;20069;-71
2023/05/03 02:29:50;;;;;;;3.08;1.52;;;8.90;61.70;;;;;;5035037;28;20040;-68
2023/05/03 02:32:16;;;;;;;2.90;1.27;;;8.90;61.70;;;;;;5018397;28;20033;-70
2023/05/03 02:34:43;;;;;;;3.47;1.60;;;8.90;61.70;;;;;;5034821;28;20048;-69
2023/05/03 02:37:09;;;;;;;3.78;1.42;;;8.90;61.80;;;;;;5035160;28;20445;-70
2023/05/03 02:39:35;;;;;;;4.57;1.40;;;8.90;61.60;;;;;;5034738;28;20084;-70
2023/05/03 02:42:01;;;;;;;2.83;1.20;;;8.90;61.60;;;;;;5034800;28;20057;-70
2023/05/03 02:44:27;;;;;;;2.50;1.30;;;8.90;61.50;;;;;;5018335;28;20052;-69
2023/05/03 02:46:53;;;;;;;3.08;1.33;;;8.80;61.50;;;;;;5034849;28;20037;-70
2023/05/03 02:49:19;;;;;;;3.25;1.33;;;8.80;61.50;;;;;;5034998;28;20045;-70
2023/05/03 02:51:45;;;;;;;3.13;1.50;;;8.80;61.40;;;;;;5034557;28;20044;-70
2023/05/03 02:54:11;;;;;;;4.97;1.63;;;8.80;61.40;;;;;;5034406;28;20742;-70
2023/05/03 02:56:37;;;;;;;1.85;1.23;;;8.80;61.40;;;;;;5052461;28;20044;-70
2023/05/03 02:59:03;;;;;;;2.90;1.88;;;8.70;61.30;;;;;;5034631;28;20044;-70
2023/05/03 03:01:28;;;;;;;4.38;1.80;;;8.70;61.10;;;;;;5018169;28;20526;-70
2023/05/03 03:03:54;;;;;;;3.38;1.60;;;8.70;60.80;;;;;;5018028;28;20063;-70
2023/05/03 03:06:20;;;;;;;2.78;1.17;;;8.70;60.90;;;;;;5052388;28;20052;-70
2023/05/03 03:08:46;;;;;;;2.10;1.10;;;8.60;60.80;;;;;;5034536;28;20121;-70
2023/05/03 03:11:12;;;;;;;1.98;0.90;;;8.60;60.80;;;;;;5034571;28;20095;-70
2023/05/03 03:13:40;;;;;;;2.75;0.90;;;8.60;60.90;;;;;;5034523;28;20050;-70
2023/05/03 03:16:09;;;;;;;1.42;0.80;;;8.50;61.00;;;;;;5034682;28;20080;-70
2023/05/03 03:18:35;;;;;;;2.78;1.08;;;8.50;61.00;;;;;;5034507;28;20033;-70
2023/05/03 03:21:02;;;;;;;1.65;1.10;;;8.40;60.50;;;;;;5034457;28;20484;-70
2023/05/03 03:23:28;;;;;;;1.88;0.90;;;8.40;60.70;;;;;;5034376;28;20044;-70
2023/05/03 03:25:54;;;;;;;1.77;1.05;;;8.30;61.00;;;;;;5001705;28;20049;-70
2023/05/03 03:28:20;;;;;;;2.00;1.15;;;8.20;61.20;;;;;;5038022;28;20114;-70
2023/05/03 03:30:45;;;;;;;2.20;1.20;;;8.20;61.40;;;;;;5037993;28;20041;-70
2023/05/03 03:33:11;;;;;;;3.42;1.08;;;8.20;61.50;;;;;;5038198;28;20044;-70
2023/05/03 03:35:37;;;;;;;1.60;0.93;;;8.20;61.60;;;;;;5021405;28;20457;-70
2023/05/03 03:38:03;;;;;;;2.63;1.08;;;8.20;61.70;;;;;;5037872;28;20047;-70
2023/05/03 03:40:29;;;;;;;1.50;0.80;;;8.10;61.80;;;;;;5037850;28;20044;-70
2023/05/03 03:42:55;;;;;;;2.65;1.30;;;8.10;61.90;;;;;;5037766;28;20048;-70
2023/05/03 03:45:21;;;;;;;4.30;1.05;;;8.10;61.90;;;;;;5021252;28;20095;-70
2023/05/03 03:47:46;;;;;;;2.97;1.27;;;8.10;61.90;;;;;;5037935;28;20032;-70
2023/05/03 03:50:12;;;;;;;2.03;1.40;;;8.10;62.00;;;;;;5037683;28;20044;-70
2023/05/03 03:52:38;;;;;;;2.42;1.30;;;8.10;61.90;;;;;;5037604;28;20099;-70
2023/05/03 03:55:04;;;;;;;2.08;1.20;;;8.10;62.00;;;;;;5037457;28;20124;-70
2023/05/03 03:57:30;;;;;;;2.85;1.08;;;8.00;61.80;;;;;;5037875;28;20040;-70
2023/05/03 03:59:57;;;;;;;3.67;1.10;;;8.00;61.80;;;;;;5037497;28;20167;-70
2023/05/03 04:02:23;;;;;;;2.15;1.10;;;8.00;61.80;;;;;;5021191;28;20044;-70
2023/05/03 04:04:49;;;;;;;2.25;1.20;;;7.90;61.70;;;;;;5037395;28;20051;-70
2023/05/03 04:07:15;;;;;;;3.63;1.30;;;8.00;61.70;;;;;;5021069;28;20120;-75
2023/05/03 04:09:40;;;;;;;1.83;1.30;;;7.90;61.60;;;;;;5037604;28;20040;-76
2023/05/03 04:12:06;;;;;;;1.63;1.02;;;7.90;61.50;;;;;;5021121;28;20455;-76
2023/05/03 04:14:33;;;;;;;3.92;1.58;;;7.90;61.50;;;;;;5037463;28;20113;-76
2023/05/03 04:16:58;;;;;;;3.50;1.23;;;7.90;61.60;;;;;;5037621;28;20119;-76
2023/05/03 04:19:25;;;;;;;2.45;1.23;;;7.80;61.50;;;;;;5037581;28;20548;-76
2023/05/03 04:21:51;;;;;;;2.05;1.17;;;7.80;61.60;;;;;;5037319;28;20049;-76
2023/05/03 04:24:17;;;;;;;2.78;1.52;;;7.80;61.60;;;;;;5037388;28;20029;-76
2023/05/03 04:26:45;;;;;;;1.70;1.10;;;7.80;61.60;;;;;;5037003;28;20041;-75
2023/05/03 04:29:11;;;;;;;2.97;1.17;;;7.80;61.70;;;;;;5037035;28;20407;-75
2023/05/03 04:31:40;;;;;;;1.38;1.08;;;7.70;61.60;;;;;;5037150;28;20033;-75
2023/05/03 04:34:06;;;;;;;1.90;1.10;;;7.70;61.70;;;;;;5021030;28;20044;-76
2023/05/03 04:36:32;;;;;;;1.90;1.02;;;7.70;61.80;;;;;;5054830;28;20048;-76
2023/05/03 04:38:58;;;;;;;2.33;1.33;;;7.70;61.90;;;;;;5036227;28;20121;-76
2023/05/03 04:41:24;;;;;;;2.80;1.20;;;7.70;62.00;;;;;;5036973;28;20540;-76
2023/05/03 04:43:50;;;;;;;2.38;1.52;;;7.60;62.00;;;;;;5036926;28;20070;-76
2023/05/03 04:46:17;;;;;;;2.70;1.10;;;7.70;62.20;;;;;;5020595;28;20049;-76
2023/05/03 04:48:44;;;;;;;2.20;1.48;;;7.60;62.30;;;;;;5037020;28;20424;-75
2023/05/03 04:51:10;;;;;;;3.85;1.73;;;7.70;62.60;;;;;;5020466;28;20037;-76
2023/05/03 04:53:35;;;;;;;3.17;1.85;;;7.60;62.80;;;;;;5036514;28;20575;-76
2023/05/03 04:56:01;;;;;;;3.88;1.92;;;7.70;63.10;;;;;;5036547;28;20053;-76
2023/05/03 04:58:27;;;;;;;3.60;1.60;;;7.70;63.60;;;;;;5036659;28;20049;-76
2023/05/03 05:00:53;;;;;;;2.30;1.30;;;7.80;63.90;;;;;;5036570;28;20396;-76
2023/05/03 05:03:18;;;;;;;3.53;1.50;;;7.90;64.10;;;;;;5036747;28;20463;-75
2023/05/03 05:05:45;;;;;;;3.97;1.70;;;8.00;64.20;;;;;;5019834;28;20095;-76
2023/05/03 05:08:10;;;;;;;4.97;2.15;;;8.30;64.60;;;;;;5036444;28;20041;-76
2023/05/03 05:10:45;;;;;;;4.93;2.40;;;8.60;63.90;;;;;;5019948;28;20048;-76
2023/05/03 05:13:11;;;;;;;4.10;2.03;;;8.80;63.40;;;;;;5036518;28;20392;-76
2023/05/03 05:15:37;;;;;;;2.70;1.80;;;9.10;62.80;;;;;;5036345;28;20052;-76
2023/05/03 05:18:03;;;;;;;4.25;2.15;;;9.30;61.80;;;;;;5036319;28;20053;-77
2023/05/03 05:20:29;;;;;;;5.00;2.08;;;9.50;61.10;;;;;;5036230;28;20044;-75
2023/05/03 05:22:54;;;;;;;3.30;1.95;;;9.70;60.50;;;;;;5019831;28;20094;-75
2023/05/03 05:25:20;;;;;;;4.65;2.08;;;9.80;59.80;;;;;;5036107;28;20040;-76
2023/05/03 05:27:46;;;;;;;3.38;1.70;;;9.90;59.50;;;;;;5020041;28;20498;-76
2023/05/03 05:30:11;;;;;;;2.13;1.55;;;9.90;59.20;;;;;;5019568;28;20127;-76
2023/05/03 05:32:37;;;;;;;4.07;1.90;;;10.00;59.00;;;;;;5035917;28;20037;-76
2023/05/03 05:35:04;;;;;;;2.78;1.60;;;10.10;58.90;;;;;;5035810;28;20044;-76
2023/05/03 05:37:30;;;;;;;5.78;1.95;;;10.10;58.70;;;;;;5035995;28;20496;-76
2023/05/03 05:39:55;;;;;;;3.80;1.63;;;10.10;58.50;;;;;;5019553;28;20131;-76
2023/05/03 05:42:21;;;;;;;2.60;1.83;;;10.10;58.70;;;;;;5019171;28;20499;-75
2023/05/03 05:44:47;;;;;;;3.33;1.90;;;10.10;58.80;;;;;;5035404;28;20055;-75
2023/05/03 05:47:13;;;;;;;9.38;2.67;;;10.10;59.00;;;;;;5035462;28;20041;-76
2023/05/03 05:49:39;;;;;;;5.78;2.42;;;10.10;59.20;;;;;;5018844;28;20041;-76
2023/05/03 05:52:04;;;;;;;3.42;1.88;;;10.10;59.10;;;;;;5035653;28;20045;-76
2023/05/03 05:54:30;;;;;;;3.75;2.00;;;10.10;59.20;;;;;;5018995;28;20094;-75
2023/05/03 05:56:56;;;;;;;4.13;2.33;;;10.20;59.40;;;;;;5035460;28;20041;-76
2023/05/03 05:59:22;;;;;;;2.47;1.52;;;10.30;59.90;;;;;;5018893;28;20043;-75
2023/05/03 06:01:48;;;;;;;5.43;2.17;;;10.40;59.90;;;;;;5035513;28;20033;-76
2023/05/03 06:04:14;;;;;;;3.45;1.80;;;10.50;59.80;;;;;;5035148;28;20488;-76
2023/05/03 06:06:40;;;;;;;3.78;1.90;;;10.60;60.20;;;;;;5035225;28;20049;-76
2023/05/03 06:09:07;;;;;;;3.92;1.70;;;10.90;61.10;;;;;;5019196;28;20086;-76
2023/05/03 06:11:37;;;;;;;3.30;1.90;;;11.20;60.30;;;;;;5035317;28;20051;-76
2023/05/03 06:14:02;;;;;;;2.83;1.90;;;11.60;58.80;;;;;;5035392;28;20045;-76
2023/05/03 06:16:28;;;;;;;3.13;2.00;;;11.80;58.10;;;;;;5035203;28;20400;-76
2023/05/03 06:18:54;;;;;;;3.45;1.95;;;11.90;57.80;;;;;;5035249;28;20040;-76
2023/05/03 06:21:20;;;;;;;4.03;1.50;;;12.20;58.50;;;;;;5035706;28;20041;-76
2023/05/03 06:23:46;;;;;;;9.00;2.08;;;12.60;57.70;;;;;;5035102;28;20106;-75
2023/05/03 06:26:12;;;;;;;2.65;1.50;;;12.90;56.50;;;;;;5018861;28;20091;-76
2023/05/03 06:28:37;;;;;;;5.13;2.25;;;13.20;55.00;;;;;;5035447;28;20040;-75
2023/05/03 06:31:03;;;;;;;5.35;1.88;;;13.30;54.50;;;;;;5019024;28;20049;-76
2023/05/03 06:33:29;;;;;;;5.28;2.03;;;13.30;53.60;;;;;;5035321;28;20392;-77
2023/05/03 06:35:55;;;;;;;7.57;1.92;;;13.40;53.20;;;;;;5034851;28;20447;-76
2023/05/03 06:38:21;;;;;;;3.00;1.23;;;13.50;53.40;;;;;;5034993;28;20080;-76
2023/05/03 06:40:47;;;;;;;4.38;1.25;;;13.80;53.00;;;;;;5035150;28;20041;-76
2023/05/03 06:43:13;;;;;;;6.53;1.85;;;14.10;52.80;;;;;;5034953;28;20107;-76
2023/05/03 06:45:42;;;;;;;5.50;1.30;;;14.30;51.50;;;;;;5051758;28;20057;-76
2023/05/03 06:48:08;;;;;;;2.60;1.10;;;14.40;49.20;;;;;;5034941;28;20519;-76
2023/05/03 06:50:34;;;;;;;4.63;1.05;;;14.60;47.90;;;;;;5018473;28;20040;-75
2023/05/03 06:53:00;;;;;;;4.20;1.17;;;14.70;47.10;;;;;;5035237;28;20079;-76
2023/05/03 06:55:26;;;;;;;2.85;1.20;;;14.90;45.90;;;;;;5034931;28;20092;-75
2023/05/03 06:57:52;;;;;;;3.00;0.80;;;14.90;46.30;;;;;;5034828;28;20048;-76
2023/05/03 07:00:20;;;;;;;4.25;1.20;;;15.00;45.50;;;;;;5034598;28;20045;-75
2023/05/03 07:02:46;;;;;;;3.38;0.90;;;15.10;45.40;;;;;;5038008;28;20131;-76
2023/05/03 07:05:12;;;;;;;2.55;1.05;;;15.20;43.10;;;;;;5038481;28;20108;-75
2023/05/03 07:07:38;;;;;;;2.92;0.90;;;15.20;42.30;;;;;;5038531;28;20504;-75
2023/05/03 07:10:04;;;;;;;2.88;0.63;;;15.10;42.30;;;;;;5038526;28;20095;-75
2023/05/03 07:12:30;;;;;;;2.80;0.90;;;15.00;42.60;;;;;;5038691;28;20044;-75
2023/05/03 07:14:56;;;;;;;3.95;1.05;;;15.00;41.80;;;;;;5038906;28;20053;-76
2023/05/03 07:17:23;;;;;;;3.13;0.85;;;15.00;42.10;;;;;;5038554;28;20575;-75
2023/05/03 07:19:50;;;;;;;2.78;0.70;;;15.00;42.10;;;;;;5038525;28;20048;-76
2023/05/03 07:22:16;;;;;;;2.90;0.70;;;14.90;41.30;;;;;;5038853;28;20064;-76
2023/05/03 07:24:42;;;;;;;3.55;0.82;;;14.70;41.00;;;;;;5038240;28;20060;-76
2023/05/03 07:27:08;;;;;;;1.98;0.70;;;14.50;41.30;;;;;;5056193;28;20037;-76
2023/05/03 07:29:34;;;;;;;3.60;0.75;;;14.30;41.70;;;;;;5038484;28;20515;-75
2023/05/03 07:32:00;;;;;;;5.15;1.10;;;14.30;41.60;;;;;;5021858;28;20484;-75
2023/05/03 07:34:26;;;;;;;3.70;0.70;;;14.20;41.60;;;;;;5038176;28;20051;-75
2023/05/03 07:36:51;;;;;;;3.13;0.90;;;14.10;43.20;;;;;;5038475;28;20049;-75
2023/05/03 07:39:18;;;;;;;4.97;0.82;;;14.10;44.00;;;;;;5038166;28;20503;-76
2023/05/03 07:41:45;;;;;;;1.77;0.65;;;14.10;43.50;;;;;;5021801;28;20480;-75
2023/05/03 07:44:11;;;;;;;4.30;1.10;;;14.20;42.90;;;;;;5038241;28;20361;-75
2023/05/03 07:46:37;;;;;;;3.03;0.70;;;14.40;42.50;;;;;;5021635;28;20048;-76
2023/05/03 07:49:04;;;;;;;3.70;0.70;;;14.40;41.90;;;;;;5038077;28;20044;-76
2023/05/03 07:51:34;;;;;;;4.30;1.27;;;14.50;41.10;;;;;;5038097;28;20045;-76
2023/05/03 07:54:00;;;;;;;3.70;0.82;;;14.50;41.80;;;;;;5037886;28;20438;-76
2023/05/03 07:56:29;;;;;;;3.97;1.15;;;14.60;41.90;;;;;;5037704;28;20132;-76
2023/05/03 07:58:56;;;;;;;3.22;0.60;;;14.70;41.30;;;;;;5037855;28;20721;-76
2023/05/03 08:01:22;;;;;;;5.30;1.38;;;14.80;40.70;;;;;;5037714;28;20499;-76
2023/05/03 08:03:50;;;;;;;3.13;0.70;;;14.80;40.50;;;;;;5055180;28;20619;-76
2023/05/03 08:06:17;;;;;;;2.88;1.00;;;14.90;41.20;;;;;;5037504;28;20071;-76
2023/05/03 08:08:43;;;;;;;3.15;0.90;;;15.10;40.70;;;;;;5037589;28;20051;-76
2023/05/03 08:11:10;;;;;;;1.52;0.70;;;15.20;40.00;;;;;;5037319;28;20041;-71
2023/05/03 08:13:36;;;;;;;1.92;0.80;;;15.30;39.60;;;;;;5037364;28;20079;-71
2023/05/03 08:16:02;;;;;;;2.92;0.60;;;15.40;40.30;;;;;;5037113;28;20049;-71
2023/05/03 08:18:28;;;;;;;1.92;0.70;;;15.40;39.70;;;;;;5037044;28;20045;-72
2023/05/03 08:20:54;;;;;;;3.28;0.85;;;15.50;39.50;;;;;;5037039;28;20132;-72
2023/05/03 08:23:20;;;;;;;3.60;1.00;;;15.50;39.40;;;;;;5020794;28;20144;-72
2023/05/03 08:25:47;;;;;;;2.63;0.65;;;15.40;39.50;;;;;;5036667;28;20950;-71
2023/05/03 08:28:12;;;;;;;2.47;0.70;;;15.50;40.70;;;;;;5036964;28;20373;-71
2023/05/03 08:30:39;;;;;;;3.25;1.05;;;15.70;40.50;;;;;;5037179;28;20039;-71
2023/05/03 08:33:05;;;;;;;3.40;0.80;;;15.80;40.00;;;;;;5036947;28;20037;-72
2023/05/03 08:35:30;;;;;;;2.33;0.73;;;16.00;40.40;;;;;;5036825;28;20128;-72
2023/05/03 08:37:56;;;;;;;2.35;1.10;;;16.20;39.90;;;;;;5036811;28;20052;-72
2023/05/03 08:40:22;;;;;;;1.83;0.70;;;16.20;39.10;;;;;;5036679;28;20049;-72
2023/05/03 08:42:49;;;;;;;2.72;0.90;;;16.30;38.40;;;;;;5020179;28;20503;-71
2023/05/03 08:45:16;;;;;;;3.28;0.80;;;16.30;38.20;;;;;;5036649;28;20083;-71
2023/05/03 08:47:43;;;;;;;1.75;0.70;;;16.30;38.30;;;;;;5036539;28;20040;-72
2023/05/03 08:50:10;;;;;;;2.38;0.88;;;16.40;38.40;;;;;;5036517;28;20045;-71
2023/05/03 08:52:39;;;;;;;2.65;0.73;;;16.50;39.00;;;;;;5036471;28;20115;-72
2023/05/03 08:55:06;;;;;;;3.85;0.80;;;16.70;39.50;;;;;;5036249;28;20133;-71
2023/05/03 08:57:34;;;;;;;2.03;0.75;;;16.80;38.40;;;;;;5019959;28;20044;-72
2023/05/03 09:00:00;;;;;;;2.20;0.90;;;16.80;37.40;;;;;;5036339;28;20120;-71
2023/05/03 09:02:27;;;;;;;5.68;1.13;;;16.70;37.10;;;;;;5036247;28;20049;-72
2023/05/03 09:04:54;;;;;;;4.40;1.00;;;16.70;37.70;;;;;;5035889;28;20053;-72
2023/05/03 09:07:19;;;;;;;2.95;1.17;;;16.70;38.00;;;;;;5036072;28;20040;-72
2023/05/03 09:09:48;;;;;;;2.42;0.80;;;16.70;36.90;;;;;;5020010;28;20123;-70
2023/05/03 09:12:34;;;;;;;3.55;1.15;;;16.40;37.00;;;;;;5036107;28;20044;-70
2023/05/03 09:15:00;;;;;;;2.03;1.00;;;16.20;36.90;;;;;;5036247;28;20051;-70
2023/05/03 09:17:26;;;;;;;3.65;0.70;;;16.10;37.20;;;;;;5019529;28;20041;-70
2023/05/03 09:19:56;;;;;;;3.50;0.95;;;16.00;37.10;;;;;;5053862;28;20127;-70
2023/05/03 09:22:25;;;;;;;2.35;0.70;;;15.80;37.40;;;;;;5035998;28;20051;-70
2023/05/03 09:24:55;;;;;;;3.70;0.90;;;15.70;37.30;;;;;;5035508;28;20400;-70
2023/05/03 09:27:22;;;;;;;4.97;0.68;;;15.70;38.10;;;;;;5019276;28;20040;-70
2023/05/03 09:29:49;;;;;;;4.68;0.80;;;15.80;38.30;;;;;;5035747;28;20041;-70
2023/05/03 09:32:15;;;;;;;2.30;0.80;;;15.80;38.40;;;;;;5019349;28;20150;-70
2023/05/03 09:34:42;;;;;;;4.38;0.98;;;16.00;38.70;;;;;;5035617;28;20033;-70
2023/05/03 09:37:08;;;;;;;3.40;0.77;;;16.00;38.30;;;;;;5035479;28;20127;-71
2023/05/03 09:39:35;;;;;;;2.33;0.90;;;16.00;37.80;;;;;;5018821;28;20183;-70
2023/05/03 09:42:15;;;;;;;4.10;1.13;;;15.90;38.30;;;;;;5052704;28;20049;-70
2023/05/03 09:44:43;;;;;;;1.73;0.80;;;15.90;37.70;;;;;;5019335;28;20059;-70
2023/05/03 09:47:10;;;;;;;3.05;0.90;;;15.80;37.50;;;;;;5034847;28;20116;-70
2023/05/03 09:49:37;;;;;;;3.58;1.05;;;15.80;37.70;;;;;;5034369;28;20098;-70
2023/05/03 09:52:03;;;;;;;3.05;1.10;;;15.90;38.50;;;;;;5034360;28;20063;-70
2023/05/03 09:54:30;;;;;;;2.95;1.00;;;16.00;37.80;;;;;;5033837;28;20049;-69
2023/05/03 09:56:56;;;;;;;3.45;0.93;;;16.10;39.00;;;;;;5034101;28;20083;-69
2023/05/03 09:59:22;;;;;;;2.47;0.98;;;16.30;39.80;;;;;;5034233;28;20087;-69
2023/05/03 10:01:49;;;;;;;1.95;0.80;;;16.40;39.60;;;;;;5033814;28;20506;-70
2023/05/03 10:04:18;;;;;;;2.35;0.90;;;16.40;38.40;;;;;;5033766;28;20065;-70
2023/05/03 10:06:47;;;;;;;3.90;0.90;;;16.40;38.10;;;;;;5033797;28;20041;-70
2023/05/03 10:09:25;;;;;;;2.95;1.00;;;16.50;38.90;;;;;;5034074;28;20396;-70
2023/05/03 10:11:53;;;;;;;4.93;1.40;;;16.50;39.10;;;;;;5033674;28;20048;-71
2023/05/03 10:14:23;;;;;;;2.70;0.68;;;16.50;38.00;;;;;;5034147;28;20388;-71
2023/05/03 10:16:52;;;;;;;2.53;0.95;;;16.50;38.40;;;;;;5033679;28;20511;-71
2023/05/03 10:19:28;;;;;;;2.53;1.25;;;16.50;38.00;;;;;;5017269;28;20045;-71
2023/05/03 10:22:06;;;;;;;3.13;0.90;;;16.50;38.20;;;;;;5033727;28;20052;-69
2023/05/03 10:24:33;;;;;;;3.25;1.00;;;16.60;39.00;;;;;;5033792;28;20037;-69
2023/05/03 10:26:59;;;;;;;4.75;1.15;;;16.60;38.10;;;;;;5033513;28;20496;-69
2023/05/03 10:29:34;;;;;;;4.18;1.70;;;16.70;39.30;;;;;;5017436;28;20094;-69
2023/05/03 10:32:01;;;;;;;3.08;1.00;;;16.70;38.80;;;;;;5033603;28;20041;-69
2023/05/03 10:34:32;;;;;;;3.65;1.00;;;16.80;38.70;;;;;;5017255;28;20373;-69
2023/05/03 10:37:01;;;;;;;4.13;1.30;;;16.80;38.20;;;;;;5018810;28;20548;-69
2023/05/03 10:39:27;;;;;;;3.78;1.35;;;16.70;38.60;;;;;;5037528;28;20048;-69
2023/05/03 10:42:07;;;;;;;3.45;1.20;;;16.70;37.90;;;;;;5037848;28;20347;-69
2023/05/03 10:44:50;;;;;;;4.57;1.45;;;16.60;37.80;;;;;;5037631;28;20434;-69
2023/05/03 10:47:17;;;;;;;2.30;1.33;;;16.50;37.70;;;;;;5020935;28;20037;-70
2023/05/03 10:49:43;;;;;;;3.10;1.40;;;16.50;37.40;;;;;;5021205;28;20033;-70
2023/05/03 10:52:34;;;;;;;3.33;1.50;;;16.50;38.20;;;;;;5021048;28;20041;-70
2023/05/03 10:55:17;;;;;;;4.30;1.50;;;16.40;37.00;;;;;;5020986;28;20480;-70
2023/05/03 10:57:45;;;;;;;2.78;1.20;;;16.20;37.40;;;;;;5037514;28;20053;-70
2023/05/03 11:00:15;;;;;;;3.30;1.23;;;16.10;37.80;;;;;;5037281;28;20048;-70
2023/05/03 11:03:10;;;;;;;6.22;1.95;;;16.10;37.70;;;;;;5021019;28;20068;-70
2023/05/03 11:05:38;;;;;;;3.33;1.45;;;16.20;38.60;;;;;;5033929;28;20378;-69
2023/05/03 11:08:16;;;;;;;4.20;1.63;;;16.10;38.50;;;;;;5018161;28;20041;-69
2023/05/03 11:10:47;;;;;;;3.15;1.40;;;16.10;38.60;;;;;;5034413;28;20431;-69
2023/05/03 11:13:13;;;;;;;3.90;1.58;;;16.10;38.90;;;;;;5035322;28;20400;-69
2023/05/03 11:15:40;;;;;;;4.07;1.65;;;16.20;38.30;;;;;;5033862;28;20103;-69
2023/05/03 11:18:12;;;;;;;3.40;1.98;;;16.20;38.40;;;;;;5033888;28;20055;-69
2023/05/03 11:20:38;;;;;;;3.83;1.70;;;16.20;37.80;;;;;;5034073;28;20130;-69
2023/05/03 11:23:06;;;;;;;3.08;1.27;;;16.20;38.30;;;;;;5033756;28;20153;-69
2023/05/03 11:25:33;;;;;;;5.82;1.50;;;16.30;38.90;;;;;;5033706;28;20128;-69
2023/05/03 11:28:05;;;;;;;3.72;1.40;;;16.40;38.90;;;;;;5033593;28;20041;-70
2023/05/03 11:30:36;;;;;;;3.35;1.38;;;16.50;38.70;;;;;;5017174;28;20038;-70
2023/05/03 11:33:02;;;;;;;4.32;1.50;;;16.60;37.90;;;;;;5033799;28;20542;-70
2023/05/03 11:35:29;;;;;;;2.28;0.93;;;16.60;38.60;;;;;;5033748;28;20041;-70
2023/05/03 11:37:55;;;;;;;4.75;1.70;;;16.70;38.60;;;;;;5001093;28;20037;-70
2023/05/03 11:40:21;;;;;;;3.88;1.80;;;16.80;38.20;;;;;;5016786;28;20057;-70
2023/05/03 11:42:54;;;;;;;4.85;1.83;;;16.80;38.70;;;;;;5033407;28;20066;-70
2023/05/03 11:45:22;;;;;;;4.15;1.60;;;16.90;38.10;;;;;;5000332;28;20092;-70
2023/05/03 11:47:48;;;;;;;5.95;1.88;;;17.10;37.60;;;;;;5032862;28;20053;-70
2023/05/03 11:50:14;;;;;;;2.65;1.40;;;17.10;37.60;;;;;;5033398;28;20045;-70
2023/05/03 11:52:40;;;;;;;5.07;1.92;;;17.10;36.60;;;;;;5033198;28;20168;-70
2023/05/03 11:55:07;;;;;;;7.03;1.85;;;17.10;36.30;;;;;;5032953;28;20095;-70
2023/05/03 11:57:34;;;;;;;3.38;1.50;;;17.10;36.70;;;;;;5033167;28;20068;-70
2023/05/03 12:00:16;;;;;;;4.95;1.60;;;17.00;36.70;;;;;;5032869;28;20612;-70
2023/05/03 12:02:43;;;;;;;5.47;1.60;;;17.00;37.20;;;;;;5032769;28;20131;-70
2023/05/03 12:05:09;;;;;;;4.40;1.38;;;17.00;37.30;;;;;;5032349;28;20068;-69
2023/05/03 12:07:39;;;;;;;3.85;2.03;;;17.00;38.30;;;;;;5032798;28;20042;-75
2023/05/03 12:10:17;;;;;;;3.15;1.33;;;17.10;38.10;;;;;;5032986;28;20354;-75
2023/05/03 12:12:56;;;;;;;7.43;2.63;;;17.10;38.30;;;;;;5032972;28;20045;-76
2023/05/03 12:15:29;;;;;;;3.47;2.25;;;17.10;38.60;;;;;;5032748;28;20136;-75
2023/05/03 12:17:56;;;;;;;3.13;1.70;;;17.20;38.30;;;;;;5034070;28;20046;-75
2023/05/03 12:20:23;;;;;;;2.65;1.63;;;17.10;38.00;;;;;;5032617;28;20045;-75
2023/05/03 12:22:54;;;;;;;2.95;1.80;;;17.10;37.30;;;;;;5032847;28;20053;-76
2023/05/03 12:25:21;;;;;;;2.63;1.90;;;17.20;37.00;;;;;;5032405;28;20084;-75
2023/05/03 12:27:47;;;;;;;3.22;1.95;;;17.10;36.00;;;;;;5032779;28;20165;-76
2023/05/03 12:30:13;;;;;;;3.22;1.67;;;16.90;36.70;;;;;;5032928;28;20361;-76
2023/05/03 12:32:39;;;;;;;3.22;1.90;;;16.80;36.90;;;;;;5032441;28;20069;-75
2023/05/03 12:35:07;;;;;;;3.63;1.90;;;16.60;36.70;;;;;;5032304;28;20167;-75
2023/05/03 12:37:34;;;;;;;3.25;1.90;;;16.60;37.00;;;;;;5032827;28;20444;-76
2023/05/03 12:40:01;;;;;;;2.85;1.95;;;16.50;37.30;;;;;;5032571;28;20045;-68
2023/05/03 12:42:27;;;;;;;5.43;2.00;;;16.50;37.90;;;;;;5032109;28;20046;-68
2023/05/03 12:44:57;;;;;;;4.00;1.77;;;16.40;37.80;;;;;;5032195;28;20049;-68
2023/05/03 12:47:23;;;;;;;4.30;2.10;;;16.40;37.60;;;;;;5031776;28;20102;-68
2023/05/03 12:49:48;;;;;;;4.03;1.85;;;16.40;37.60;;;;;;5032180;28;20121;-68
2023/05/03 12:52:15;;;;;;;8.27;2.65;;;16.20;38.40;;;;;;5032044;28;20124;-68